sensor_id;sensor_type;location;lat;lon;timestamp;temperature;humidity
84173;DHT22;74302;40.122;18.310;2024-01-30T00:01:30;9.90;51.00
84173;DHT22;74302;40.122;18.310;2024-01-30T00:03:15;9.80;51.00
84173;DHT22;74302;40.122;18.310;2024-01-30T00:04:58;9.80;51.00
84173;DHT22;74302;40.122;18.310;2024-01-30T00:06:42;9.80;51.10
84173;DHT22;74302;40.122;18.310;2024-01-30T00:08:25;9.80;51.10
84173;DHT22;74302;40.122;18.310;2024-01-30T00:10:28;9.80;51.10
84173;DHT22;74302;40.122;18.310;2024-01-30T00:13:47;9.80;51.10
84173;DHT22;74302;40.122;18.310;2024-01-30T00:16:28;9.70;51.10
84173;DHT22;74302;40.122;18.310;2024-01-30T00:18:12;9.60;51.10
84173;DHT22;74302;40.122;18.310;2024-01-30T00:19:55;9.60;51.20
84173;DHT22;74302;40.122;18.310;2024-01-30T00:21:40;9.60;51.20
84173;DHT22;74302;40.122;18.310;2024-01-30T00:23:23;9.60;51.20
84173;DHT22;74302;40.122;18.310;2024-01-30T00:25:08;9.60;51.30
84173;DHT22;74302;40.122;18.310;2024-01-30T00:26:52;9.60;51.30
84173;DHT22;74302;40.122;18.310;2024-01-30T00:28:35;9.60;51.30
84173;DHT22;74302;40.122;18.310;2024-01-30T00:30:20;9.50;51.30
84173;DHT22;74302;40.122;18.310;2024-01-30T00:32:06;9.50;51.30
84173;DHT22;74302;40.122;18.310;2024-01-30T00:33:49;9.50;51.40
84173;DHT22;74302;40.122;18.310;2024-01-30T00:35:33;9.50;51.30
84173;DHT22;74302;40.122;18.310;2024-01-30T00:37:17;9.50;51.30
84173;DHT22;74302;40.122;18.310;2024-01-30T00:39:01;9.50;51.30
84173;DHT22;74302;40.122;18.310;2024-01-30T00:40:44;9.40;51.30
84173;DHT22;74302;40.122;18.310;2024-01-30T00:42:28;9.40;51.30
84173;DHT22;74302;40.122;18.310;2024-01-30T00:44:14;9.40;51.30
84173;DHT22;74302;40.122;18.310;2024-01-30T00:45:58;9.40;51.30
84173;DHT22;74302;40.122;18.310;2024-01-30T00:47:43;9.40;51.40
84173;DHT22;74302;40.122;18.310;2024-01-30T00:49:27;9.40;51.40
84173;DHT22;74302;40.122;18.310;2024-01-30T00:51:10;9.40;51.40
84173;DHT22;74302;40.122;18.310;2024-01-30T00:52:55;9.40;51.40
84173;DHT22;74302;40.122;18.310;2024-01-30T00:54:39;9.40;51.40
84173;DHT22;74302;40.122;18.310;2024-01-30T00:56:23;9.40;51.40
84173;DHT22;74302;40.122;18.310;2024-01-30T00:58:07;9.40;51.40
84173;DHT22;74302;40.122;18.310;2024-01-30T00:59:51;9.40;51.40
84173;DHT22;74302;40.122;18.310;2024-01-30T01:01:35;9.40;51.40
84173;DHT22;74302;40.122;18.310;2024-01-30T01:03:21;9.30;51.30
84173;DHT22;74302;40.122;18.310;2024-01-30T01:05:06;9.30;51.30
84173;DHT22;74302;40.122;18.310;2024-01-30T01:06:51;9.30;51.30
84173;DHT22;74302;40.122;18.310;2024-01-30T01:08:35;9.30;51.30
84173;DHT22;74302;40.122;18.310;2024-01-30T01:10:19;9.30;51.30
84173;DHT22;74302;40.122;18.310;2024-01-30T01:12:03;9.30;51.30
84173;DHT22;74302;40.122;18.310;2024-01-30T01:13:48;9.30;51.40
84173;DHT22;74302;40.122;18.310;2024-01-30T01:15:32;9.30;51.40
84173;DHT22;74302;40.122;18.310;2024-01-30T01:17:15;9.30;51.40
84173;DHT22;74302;40.122;18.310;2024-01-30T01:23:12;9.20;51.40
84173;DHT22;74302;40.122;18.310;2024-01-30T01:25:38;9.10;51.40
84173;DHT22;74302;40.122;18.310;2024-01-30T01:27:31;9.10;51.40
84173;DHT22;74302;40.122;18.310;2024-01-30T01:29:15;9.10;51.50
84173;DHT22;74302;40.122;18.310;2024-01-30T01:30:59;9.10;51.50
84173;DHT22;74302;40.122;18.310;2024-01-30T01:32:48;9.00;51.60
84173;DHT22;74302;40.122;18.310;2024-01-30T01:34:37;9.00;51.60
84173;DHT22;74302;40.122;18.310;2024-01-30T01:36:21;9.00;51.60
84173;DHT22;74302;40.122;18.310;2024-01-30T01:38:07;9.00;51.60
84173;DHT22;74302;40.122;18.310;2024-01-30T01:39:50;9.00;51.70
84173;DHT22;74302;40.122;18.310;2024-01-30T01:41:35;8.90;51.70
84173;DHT22;74302;40.122;18.310;2024-01-30T01:43:19;8.90;51.70
84173;DHT22;74302;40.122;18.310;2024-01-30T01:45:02;8.90;51.70
84173;DHT22;74302;40.122;18.310;2024-01-30T01:46:47;8.90;51.70
84173;DHT22;74302;40.122;18.310;2024-01-30T01:48:30;8.80;51.60
84173;DHT22;74302;40.122;18.310;2024-01-30T01:50:16;8.80;51.60
84173;DHT22;74302;40.122;18.310;2024-01-30T01:52:02;8.80;51.60
84173;DHT22;74302;40.122;18.310;2024-01-30T01:53:49;8.80;51.60
84173;DHT22;74302;40.122;18.310;2024-01-30T01:55:32;8.80;51.60
84173;DHT22;74302;40.122;18.310;2024-01-30T01:57:16;8.80;51.60
84173;DHT22;74302;40.122;18.310;2024-01-30T01:59:00;8.80;51.60
84173;DHT22;74302;40.122;18.310;2024-01-30T02:00:48;8.80;51.60
84173;DHT22;74302;40.122;18.310;2024-01-30T02:02:35;8.70;51.60
84173;DHT22;74302;40.122;18.310;2024-01-30T02:04:18;8.70;51.50
84173;DHT22;74302;40.122;18.310;2024-01-30T02:06:03;8.80;51.50
84173;DHT22;74302;40.122;18.310;2024-01-30T02:07:46;8.80;51.50
84173;DHT22;74302;40.122;18.310;2024-01-30T02:09:32;8.80;51.50
84173;DHT22;74302;40.122;18.310;2024-01-30T02:11:16;8.80;51.50
84173;DHT22;74302;40.122;18.310;2024-01-30T02:13:00;8.80;51.50
84173;DHT22;74302;40.122;18.310;2024-01-30T02:14:55;8.90;51.50
84173;DHT22;74302;40.122;18.310;2024-01-30T02:17:34;8.90;51.40
84173;DHT22;74302;40.122;18.310;2024-01-30T02:20:09;8.90;51.40
84173;DHT22;74302;40.122;18.310;2024-01-30T02:22:25;8.90;51.40
84173;DHT22;74302;40.122;18.310;2024-01-30T02:24:09;8.90;51.30
84173;DHT22;74302;40.122;18.310;2024-01-30T02:25:52;8.90;51.40
84173;DHT22;74302;40.122;18.310;2024-01-30T02:27:36;8.80;51.40
84173;DHT22;74302;40.122;18.310;2024-01-30T02:29:19;8.80;51.40
84173;DHT22;74302;40.122;18.310;2024-01-30T02:31:03;8.80;51.50
84173;DHT22;74302;40.122;18.310;2024-01-30T02:32:47;8.80;51.50
84173;DHT22;74302;40.122;18.310;2024-01-30T02:34:31;8.80;51.50
84173;DHT22;74302;40.122;18.310;2024-01-30T02:36:14;8.80;51.50
84173;DHT22;74302;40.122;18.310;2024-01-30T02:38:00;8.80;51.50
84173;DHT22;74302;40.122;18.310;2024-01-30T02:39:43;8.80;51.50
84173;DHT22;74302;40.122;18.310;2024-01-30T02:41:28;8.80;51.60
84173;DHT22;74302;40.122;18.310;2024-01-30T02:43:12;8.80;51.60
84173;DHT22;74302;40.122;18.310;2024-01-30T02:45:29;8.70;51.50
84173;DHT22;74302;40.122;18.310;2024-01-30T02:48:52;8.80;51.50
84173;DHT22;74302;40.122;18.310;2024-01-30T02:52:24;8.70;51.50
84173;DHT22;74302;40.122;18.310;2024-01-30T02:54:09;8.70;51.50
84173;DHT22;74302;40.122;18.310;2024-01-30T02:55:52;8.70;51.60
84173;DHT22;74302;40.122;18.310;2024-01-30T02:57:37;8.60;51.60
84173;DHT22;74302;40.122;18.310;2024-01-30T02:59:20;8.60;51.60
84173;DHT22;74302;40.122;18.310;2024-01-30T03:01:04;8.60;51.70
84173;DHT22;74302;40.122;18.310;2024-01-30T03:02:48;8.60;51.70
84173;DHT22;74302;40.122;18.310;2024-01-30T03:04:32;8.60;51.70
84173;DHT22;74302;40.122;18.310;2024-01-30T03:06:15;8.60;51.70
84173;DHT22;74302;40.122;18.310;2024-01-30T03:08:00;8.60;51.70
84173;DHT22;74302;40.122;18.310;2024-01-30T03:09:46;8.60;51.70
84173;DHT22;74302;40.122;18.310;2024-01-30T03:11:29;8.60;51.70
84173;DHT22;74302;40.122;18.310;2024-01-30T03:13:13;8.60;51.70
84173;DHT22;74302;40.122;18.310;2024-01-30T03:14:56;8.60;51.70
84173;DHT22;74302;40.122;18.310;2024-01-30T03:17:14;8.60;51.70
84173;DHT22;74302;40.122;18.310;2024-01-30T03:20:39;8.60;51.70
84173;DHT22;74302;40.122;18.310;2024-01-30T03:23:42;8.60;51.70
84173;DHT22;74302;40.122;18.310;2024-01-30T03:25:35;8.60;51.70
84173;DHT22;74302;40.122;18.310;2024-01-30T03:27:19;8.60;51.70
84173;DHT22;74302;40.122;18.310;2024-01-30T03:29:03;8.50;51.70
84173;DHT22;74302;40.122;18.310;2024-01-30T03:30:47;8.50;51.80
84173;DHT22;74302;40.122;18.310;2024-01-30T03:32:31;8.40;51.80
84173;DHT22;74302;40.122;18.310;2024-01-30T03:34:14;8.40;51.80
84173;DHT22;74302;40.122;18.310;2024-01-30T03:36:03;8.40;51.90
84173;DHT22;74302;40.122;18.310;2024-01-30T03:37:46;8.40;51.90
84173;DHT22;74302;40.122;18.310;2024-01-30T03:39:30;8.40;51.90
84173;DHT22;74302;40.122;18.310;2024-01-30T03:41:15;8.40;51.90
84173;DHT22;74302;40.122;18.310;2024-01-30T03:42:59;8.40;51.90
84173;DHT22;74302;40.122;18.310;2024-01-30T03:44:43;8.30;51.90
84173;DHT22;74302;40.122;18.310;2024-01-30T03:46:27;8.20;51.90
84173;DHT22;74302;40.122;18.310;2024-01-30T03:48:10;8.30;52.00
84173;DHT22;74302;40.122;18.310;2024-01-30T03:49:54;8.20;52.00
84173;DHT22;74302;40.122;18.310;2024-01-30T03:51:37;8.20;52.00
84173;DHT22;74302;40.122;18.310;2024-01-30T03:53:21;8.20;52.00
84173;DHT22;74302;40.122;18.310;2024-01-30T03:55:06;8.20;52.00
84173;DHT22;74302;40.122;18.310;2024-01-30T03:56:52;8.20;52.00
84173;DHT22;74302;40.122;18.310;2024-01-30T03:58:35;8.30;52.00
84173;DHT22;74302;40.122;18.310;2024-01-30T04:00:19;8.30;52.00
84173;DHT22;74302;40.122;18.310;2024-01-30T04:02:02;8.30;52.00
84173;DHT22;74302;40.122;18.310;2024-01-30T04:03:47;8.30;52.00
84173;DHT22;74302;40.122;18.310;2024-01-30T04:05:30;8.30;52.00
84173;DHT22;74302;40.122;18.310;2024-01-30T04:07:14;8.40;51.90
84173;DHT22;74302;40.122;18.310;2024-01-30T04:08:58;8.40;51.90
84173;DHT22;74302;40.122;18.310;2024-01-30T04:10:42;8.40;51.90
84173;DHT22;74302;40.122;18.310;2024-01-30T04:12:28;8.40;51.80
84173;DHT22;74302;40.122;18.310;2024-01-30T04:14:12;8.40;51.80
84173;DHT22;74302;40.122;18.310;2024-01-30T04:15:55;8.50;51.80
84173;DHT22;74302;40.122;18.310;2024-01-30T04:17:39;8.50;51.70
84173;DHT22;74302;40.122;18.310;2024-01-30T04:19:22;8.50;51.70
84173;DHT22;74302;40.122;18.310;2024-01-30T04:21:07;8.50;51.70
84173;DHT22;74302;40.122;18.310;2024-01-30T04:22:50;8.50;51.70
84173;DHT22;74302;40.122;18.310;2024-01-30T04:24:34;8.60;51.70
84173;DHT22;74302;40.122;18.310;2024-01-30T04:26:17;8.60;51.70
84173;DHT22;74302;40.122;18.310;2024-01-30T04:28:03;8.60;51.60
84173;DHT22;74302;40.122;18.310;2024-01-30T04:29:46;8.60;51.60
84173;DHT22;74302;40.122;18.310;2024-01-30T04:31:30;8.60;51.70
84173;DHT22;74302;40.122;18.310;2024-01-30T04:33:13;8.60;51.60
84173;DHT22;74302;40.122;18.310;2024-01-30T04:34:57;8.60;51.60
84173;DHT22;74302;40.122;18.310;2024-01-30T04:36:44;8.60;51.60
84173;DHT22;74302;40.122;18.310;2024-01-30T04:38:29;8.60;51.60
84173;DHT22;74302;40.122;18.310;2024-01-30T04:40:12;8.60;51.60
84173;DHT22;74302;40.122;18.310;2024-01-30T04:41:57;8.60;51.60
84173;DHT22;74302;40.122;18.310;2024-01-30T04:43:41;8.60;51.70
84173;DHT22;74302;40.122;18.310;2024-01-30T04:46:01;8.60;51.70
84173;DHT22;74302;40.122;18.310;2024-01-30T04:49:13;8.60;51.70
84173;DHT22;74302;40.122;18.310;2024-01-30T05:01:53;8.60;51.60
84173;DHT22;74302;40.122;18.310;2024-01-30T05:03:38;8.30;51.70
84173;DHT22;74302;40.122;18.310;2024-01-30T05:05:21;8.30;51.70
84173;DHT22;74302;40.122;18.310;2024-01-30T05:07:05;8.30;51.70
84173;DHT22;74302;40.122;18.310;2024-01-30T05:08:48;8.40;51.70
84173;DHT22;74302;40.122;18.310;2024-01-30T05:10:32;8.40;51.60
84173;DHT22;74302;40.122;18.310;2024-01-30T05:12:16;8.50;51.60
84173;DHT22;74302;40.122;18.310;2024-01-30T05:14:00;8.50;51.60
84173;DHT22;74302;40.122;18.310;2024-01-30T05:15:44;8.50;51.50
84173;DHT22;74302;40.122;18.310;2024-01-30T05:17:30;8.60;51.50
84173;DHT22;74302;40.122;18.310;2024-01-30T05:19:15;8.60;51.50
84173;DHT22;74302;40.122;18.310;2024-01-30T05:21:00;8.60;51.50
84173;DHT22;74302;40.122;18.310;2024-01-30T05:22:43;8.60;51.50
84173;DHT22;74302;40.122;18.310;2024-01-30T05:24:44;8.60;51.50
84173;DHT22;74302;40.122;18.310;2024-01-30T05:29:00;8.70;51.50
84173;DHT22;74302;40.122;18.310;2024-01-30T05:32:00;8.60;51.40
84173;DHT22;74302;40.122;18.310;2024-01-30T05:33:45;8.60;51.40
84173;DHT22;74302;40.122;18.310;2024-01-30T05:35:29;8.70;51.40
84173;DHT22;74302;40.122;18.310;2024-01-30T05:37:13;8.60;51.40
84173;DHT22;74302;40.122;18.310;2024-01-30T05:38:59;8.60;51.50
84173;DHT22;74302;40.122;18.310;2024-01-30T05:40:43;8.60;51.50
84173;DHT22;74302;40.122;18.310;2024-01-30T05:42:27;8.70;51.50
84173;DHT22;74302;40.122;18.310;2024-01-30T05:44:11;8.70;51.50
84173;DHT22;74302;40.122;18.310;2024-01-30T05:45:55;8.70;51.50
84173;DHT22;74302;40.122;18.310;2024-01-30T05:47:39;8.70;51.50
84173;DHT22;74302;40.122;18.310;2024-01-30T05:49:24;8.80;51.40
84173;DHT22;74302;40.122;18.310;2024-01-30T05:51:09;8.80;51.40
84173;DHT22;74302;40.122;18.310;2024-01-30T05:52:53;8.80;51.40
84173;DHT22;74302;40.122;18.310;2024-01-30T05:54:36;8.80;51.40
84173;DHT22;74302;40.122;18.310;2024-01-30T05:56:20;8.80;51.40
84173;DHT22;74302;40.122;18.310;2024-01-30T05:58:05;8.80;51.40
84173;DHT22;74302;40.122;18.310;2024-01-30T06:00:17;8.80;51.40
84173;DHT22;74302;40.122;18.310;2024-01-30T06:03:43;8.80;51.30
84173;DHT22;74302;40.122;18.310;2024-01-30T06:07:19;8.80;51.30
84173;DHT22;74302;40.122;18.310;2024-01-30T06:09:05;8.80;51.30
84173;DHT22;74302;40.122;18.310;2024-01-30T06:10:50;8.80;51.30
84173;DHT22;74302;40.122;18.310;2024-01-30T06:12:34;8.80;51.30
84173;DHT22;74302;40.122;18.310;2024-01-30T06:14:18;8.90;51.30
84173;DHT22;74302;40.122;18.310;2024-01-30T06:16:01;8.90;51.30
84173;DHT22;74302;40.122;18.310;2024-01-30T06:17:46;9.00;51.20
84173;DHT22;74302;40.122;18.310;2024-01-30T06:19:29;9.00;51.20
84173;DHT22;74302;40.122;18.310;2024-01-30T06:21:13;9.10;51.20
84173;DHT22;74302;40.122;18.310;2024-01-30T06:22:58;9.10;51.10
84173;DHT22;74302;40.122;18.310;2024-01-30T06:24:43;9.20;51.00
84173;DHT22;74302;40.122;18.310;2024-01-30T06:26:27;9.40;50.90
84173;DHT22;74302;40.122;18.310;2024-01-30T06:28:11;9.50;50.80
84173;DHT22;74302;40.122;18.310;2024-01-30T06:29:55;9.70;50.60
84173;DHT22;74302;40.122;18.310;2024-01-30T06:31:41;9.80;50.50
84173;DHT22;74302;40.122;18.310;2024-01-30T06:33:26;10.00;50.30
84173;DHT22;74302;40.122;18.310;2024-01-30T06:35:10;10.10;50.10
84173;DHT22;74302;40.122;18.310;2024-01-30T06:36:53;10.30;50.00
84173;DHT22;74302;40.122;18.310;2024-01-30T06:38:39;10.40;49.90
84173;DHT22;74302;40.122;18.310;2024-01-30T06:40:24;10.70;49.70
84173;DHT22;74302;40.122;18.310;2024-01-30T06:42:20;10.80;49.60
84173;DHT22;74302;40.122;18.310;2024-01-30T06:45:57;11.10;49.40
84173;DHT22;74302;40.122;18.310;2024-01-30T06:49:00;11.40;49.00
84173;DHT22;74302;40.122;18.310;2024-01-30T06:51:43;11.70;48.70
84173;DHT22;74302;40.122;18.310;2024-01-30T06:53:27;12.10;48.40
84173;DHT22;74302;40.122;18.310;2024-01-30T06:55:11;12.40;48.20
84173;DHT22;74302;40.122;18.310;2024-01-30T06:56:55;12.70;47.90
84173;DHT22;74302;40.122;18.310;2024-01-30T06:58:38;13.10;47.60
84173;DHT22;74302;40.122;18.310;2024-01-30T07:00:23;13.40;47.20
84173;DHT22;74302;40.122;18.310;2024-01-30T07:02:07;13.70;46.90
84173;DHT22;74302;40.122;18.310;2024-01-30T07:03:50;13.90;46.60
84173;DHT22;74302;40.122;18.310;2024-01-30T07:05:34;14.20;46.40
84173;DHT22;74302;40.122;18.310;2024-01-30T07:07:18;14.40;46.20
84173;DHT22;74302;40.122;18.310;2024-01-30T07:09:02;14.60;46.10
84173;DHT22;74302;40.122;18.310;2024-01-30T07:10:49;14.70;46.00
84173;DHT22;74302;40.122;18.310;2024-01-30T07:12:33;15.10;46.00
84173;DHT22;74302;40.122;18.310;2024-01-30T07:14:17;15.40;45.80
84173;DHT22;74302;40.122;18.310;2024-01-30T07:16:01;15.90;45.50
84173;DHT22;74302;40.122;18.310;2024-01-30T07:17:45;16.50;45.00
84173;DHT22;74302;40.122;18.310;2024-01-30T07:19:29;17.20;44.40
84173;DHT22;74302;40.122;18.310;2024-01-30T07:21:13;17.70;44.00
84173;DHT22;74302;40.122;18.310;2024-01-30T07:22:57;18.30;43.40
84173;DHT22;74302;40.122;18.310;2024-01-30T07:24:43;18.90;43.40
84173;DHT22;74302;40.122;18.310;2024-01-30T07:26:32;19.80;42.40
84173;DHT22;74302;40.122;18.310;2024-01-30T07:28:16;21.00;41.30
84173;DHT22;74302;40.122;18.310;2024-01-30T07:30:00;22.20;40.20
84173;DHT22;74302;40.122;18.310;2024-01-30T07:31:44;23.40;39.20
84173;DHT22;74302;40.122;18.310;2024-01-30T07:33:27;24.50;38.70
84173;DHT22;74302;40.122;18.310;2024-01-30T07:35:12;25.50;37.50
84173;DHT22;74302;40.122;18.310;2024-01-30T07:36:56;26.40;37.20
84173;DHT22;74302;40.122;18.310;2024-01-30T07:38:40;27.20;36.40
84173;DHT22;74302;40.122;18.310;2024-01-30T07:40:24;27.80;35.90
84173;DHT22;74302;40.122;18.310;2024-01-30T07:42:09;28.40;35.50
84173;DHT22;74302;40.122;18.310;2024-01-30T07:43:53;28.80;35.20
84173;DHT22;74302;40.122;18.310;2024-01-30T07:45:37;29.30;34.90
84173;DHT22;74302;40.122;18.310;2024-01-30T07:47:21;29.80;35.10
84173;DHT22;74302;40.122;18.310;2024-01-30T07:49:05;30.40;34.50
84173;DHT22;74302;40.122;18.310;2024-01-30T07:50:48;30.80;34.20
84173;DHT22;74302;40.122;18.310;2024-01-30T07:52:32;31.30;33.90
84173;DHT22;74302;40.122;18.310;2024-01-30T07:54:15;31.60;34.20
84173;DHT22;74302;40.122;18.310;2024-01-30T07:56:00;31.90;33.70
84173;DHT22;74302;40.122;18.310;2024-01-30T07:57:45;32.00;33.60
84173;DHT22;74302;40.122;18.310;2024-01-30T07:59:30;32.20;33.60
84173;DHT22;74302;40.122;18.310;2024-01-30T08:01:15;32.30;33.50
84173;DHT22;74302;40.122;18.310;2024-01-30T08:02:59;32.60;33.40
84173;DHT22;74302;40.122;18.310;2024-01-30T08:04:42;32.80;33.20
84173;DHT22;74302;40.122;18.310;2024-01-30T08:06:31;33.00;33.10
84173;DHT22;74302;40.122;18.310;2024-01-30T08:08:16;33.30;32.90
84173;DHT22;74302;40.122;18.310;2024-01-30T08:09:59;33.50;32.80
84173;DHT22;74302;40.122;18.310;2024-01-30T08:11:44;33.50;32.80
84173;DHT22;74302;40.122;18.310;2024-01-30T08:13:30;33.50;32.70
84173;DHT22;74302;40.122;18.310;2024-01-30T08:15:13;33.30;32.70
84173;DHT22;74302;40.122;18.310;2024-01-30T08:16:57;33.20;32.80
84173;DHT22;74302;40.122;18.310;2024-01-30T08:18:42;32.90;32.70
84173;DHT22;74302;40.122;18.310;2024-01-30T08:20:27;32.40;32.70
84173;DHT22;74302;40.122;18.310;2024-01-30T08:22:12;31.30;33.00
84173;DHT22;74302;40.122;18.310;2024-01-30T08:23:55;29.80;33.80
84173;DHT22;74302;40.122;18.310;2024-01-30T08:25:40;28.10;34.90
84173;DHT22;74302;40.122;18.310;2024-01-30T08:27:23;26.50;36.20
84173;DHT22;74302;40.122;18.310;2024-01-30T08:29:09;25.10;37.30
84173;DHT22;74302;40.122;18.310;2024-01-30T08:30:54;23.80;38.40
84173;DHT22;74302;40.122;18.310;2024-01-30T08:32:37;22.80;39.30
84173;DHT22;74302;40.122;18.310;2024-01-30T08:34:22;21.80;40.00
84173;DHT22;74302;40.122;18.310;2024-01-30T08:36:07;21.00;40.70
84173;DHT22;74302;40.122;18.310;2024-01-30T08:37:51;20.30;41.30
84173;DHT22;74302;40.122;18.310;2024-01-30T08:39:35;19.70;41.70
84173;DHT22;74302;40.122;18.310;2024-01-30T08:41:19;19.20;42.10
84173;DHT22;74302;40.122;18.310;2024-01-30T08:43:02;18.70;42.30
84173;DHT22;74302;40.122;18.310;2024-01-30T08:44:48;18.30;42.60
84173;DHT22;74302;40.122;18.310;2024-01-30T08:46:32;17.90;42.80
84173;DHT22;74302;40.122;18.310;2024-01-30T08:48:16;17.70;43.10
84173;DHT22;74302;40.122;18.310;2024-01-30T08:50:00;17.50;43.10
84173;DHT22;74302;40.122;18.310;2024-01-30T08:51:45;17.20;43.20
84173;DHT22;74302;40.122;18.310;2024-01-30T08:53:30;17.10;43.20
84173;DHT22;74302;40.122;18.310;2024-01-30T08:55:13;16.90;43.30
84173;DHT22;74302;40.122;18.310;2024-01-30T08:56:57;16.80;43.30
84173;DHT22;74302;40.122;18.310;2024-01-30T08:58:41;16.70;43.30
84173;DHT22;74302;40.122;18.310;2024-01-30T09:00:26;16.60;43.40
84173;DHT22;74302;40.122;18.310;2024-01-30T09:02:10;16.60;43.50
84173;DHT22;74302;40.122;18.310;2024-01-30T09:03:55;16.50;43.40
84173;DHT22;74302;40.122;18.310;2024-01-30T09:05:39;16.50;43.40
84173;DHT22;74302;40.122;18.310;2024-01-30T09:07:22;16.40;43.40
84173;DHT22;74302;40.122;18.310;2024-01-30T09:09:06;16.30;43.40
84173;DHT22;74302;40.122;18.310;2024-01-30T09:10:49;16.20;43.50
84173;DHT22;74302;40.122;18.310;2024-01-30T09:12:33;16.20;43.50
84173;DHT22;74302;40.122;18.310;2024-01-30T09:14:17;16.10;43.50
84173;DHT22;74302;40.122;18.310;2024-01-30T09:16:04;16.00;43.50
84173;DHT22;74302;40.122;18.310;2024-01-30T09:17:47;15.90;43.50
84173;DHT22;74302;40.122;18.310;2024-01-30T09:19:32;15.80;43.50
84173;DHT22;74302;40.122;18.310;2024-01-30T09:21:15;15.70;43.50
84173;DHT22;74302;40.122;18.310;2024-01-30T09:22:59;15.70;43.50
84173;DHT22;74302;40.122;18.310;2024-01-30T09:24:42;15.70;43.50
84173;DHT22;74302;40.122;18.310;2024-01-30T09:26:26;15.60;43.50
84173;DHT22;74302;40.122;18.310;2024-01-30T09:28:09;15.50;43.60
84173;DHT22;74302;40.122;18.310;2024-01-30T09:29:53;15.50;43.70
84173;DHT22;74302;40.122;18.310;2024-01-30T09:31:39;15.40;43.70
84173;DHT22;74302;40.122;18.310;2024-01-30T09:33:23;15.40;43.70
84173;DHT22;74302;40.122;18.310;2024-01-30T09:35:08;15.30;43.60
84173;DHT22;74302;40.122;18.310;2024-01-30T09:36:52;15.20;43.60
84173;DHT22;74302;40.122;18.310;2024-01-30T09:38:35;15.20;43.60
84173;DHT22;74302;40.122;18.310;2024-01-30T09:40:19;15.20;43.60
84173;DHT22;74302;40.122;18.310;2024-01-30T09:42:09;15.10;43.60
84173;DHT22;74302;40.122;18.310;2024-01-30T09:43:54;15.10;43.50
84173;DHT22;74302;40.122;18.310;2024-01-30T09:45:42;15.10;43.60
84173;DHT22;74302;40.122;18.310;2024-01-30T09:47:31;15.10;43.50
84173;DHT22;74302;40.122;18.310;2024-01-30T09:49:15;15.00;43.50
84173;DHT22;74302;40.122;18.310;2024-01-30T09:51:01;14.90;43.50
84173;DHT22;74302;40.122;18.310;2024-01-30T09:52:46;14.90;43.50
84173;DHT22;74302;40.122;18.310;2024-01-30T09:54:31;14.80;43.50
84173;DHT22;74302;40.122;18.310;2024-01-30T09:56:17;14.80;43.50
84173;DHT22;74302;40.122;18.310;2024-01-30T09:58:02;14.80;43.50
84173;DHT22;74302;40.122;18.310;2024-01-30T09:59:45;14.80;43.50
84173;DHT22;74302;40.122;18.310;2024-01-30T10:01:29;14.80;43.40
84173;DHT22;74302;40.122;18.310;2024-01-30T10:03:14;14.80;43.50
84173;DHT22;74302;40.122;18.310;2024-01-30T10:04:58;14.80;43.50
84173;DHT22;74302;40.122;18.310;2024-01-30T10:06:43;14.80;43.50
84173;DHT22;74302;40.122;18.310;2024-01-30T10:08:27;14.80;43.40
84173;DHT22;74302;40.122;18.310;2024-01-30T10:10:12;14.80;43.40
84173;DHT22;74302;40.122;18.310;2024-01-30T10:11:57;14.70;43.40
84173;DHT22;74302;40.122;18.310;2024-01-30T10:13:40;14.80;43.40
84173;DHT22;74302;40.122;18.310;2024-01-30T10:15:26;14.80;43.40
84173;DHT22;74302;40.122;18.310;2024-01-30T10:17:11;14.70;43.40
84173;DHT22;74302;40.122;18.310;2024-01-30T10:18:57;14.70;43.40
84173;DHT22;74302;40.122;18.310;2024-01-30T10:20:41;14.70;43.50
84173;DHT22;74302;40.122;18.310;2024-01-30T10:22:25;14.70;43.60
84173;DHT22;74302;40.122;18.310;2024-01-30T10:24:09;14.70;43.50
84173;DHT22;74302;40.122;18.310;2024-01-30T10:25:55;14.70;43.60
84173;DHT22;74302;40.122;18.310;2024-01-30T10:27:39;14.80;43.50
84173;DHT22;74302;40.122;18.310;2024-01-30T10:29:24;14.80;43.50
84173;DHT22;74302;40.122;18.310;2024-01-30T10:31:07;14.70;43.50
84173;DHT22;74302;40.122;18.310;2024-01-30T10:32:51;14.70;43.40
84173;DHT22;74302;40.122;18.310;2024-01-30T10:34:36;14.70;43.50
84173;DHT22;74302;40.122;18.310;2024-01-30T10:36:22;14.70;43.40
84173;DHT22;74302;40.122;18.310;2024-01-30T10:38:12;14.70;43.40
84173;DHT22;74302;40.122;18.310;2024-01-30T10:40:02;14.60;43.40
84173;DHT22;74302;40.122;18.310;2024-01-30T10:41:51;14.70;43.40
84173;DHT22;74302;40.122;18.310;2024-01-30T10:43:41;14.70;43.40
84173;DHT22;74302;40.122;18.310;2024-01-30T10:45:26;14.70;43.40
84173;DHT22;74302;40.122;18.310;2024-01-30T10:47:12;14.70;43.30
84173;DHT22;74302;40.122;18.310;2024-01-30T10:48:57;14.70;43.20
84173;DHT22;74302;40.122;18.310;2024-01-30T10:50:43;14.70;43.20
84173;DHT22;74302;40.122;18.310;2024-01-30T10:52:32;14.70;43.20
84173;DHT22;74302;40.122;18.310;2024-01-30T10:54:15;14.70;43.20
84173;DHT22;74302;40.122;18.310;2024-01-30T10:56:01;14.70;43.20
84173;DHT22;74302;40.122;18.310;2024-01-30T10:57:45;14.70;43.20
84173;DHT22;74302;40.122;18.310;2024-01-30T10:59:30;14.70;43.10
84173;DHT22;74302;40.122;18.310;2024-01-30T11:01:14;14.70;43.20
84173;DHT22;74302;40.122;18.310;2024-01-30T11:02:58;14.70;43.20
84173;DHT22;74302;40.122;18.310;2024-01-30T11:04:42;14.70;43.20
84173;DHT22;74302;40.122;18.310;2024-01-30T11:06:27;14.70;43.20
84173;DHT22;74302;40.122;18.310;2024-01-30T11:08:12;14.70;43.20
84173;DHT22;74302;40.122;18.310;2024-01-30T11:10:00;14.70;43.20
84173;DHT22;74302;40.122;18.310;2024-01-30T11:11:49;14.70;43.20
84173;DHT22;74302;40.122;18.310;2024-01-30T11:13:33;14.70;43.30
84173;DHT22;74302;40.122;18.310;2024-01-30T11:15:18;14.70;43.20
84173;DHT22;74302;40.122;18.310;2024-01-30T11:17:04;14.60;43.20
84173;DHT22;74302;40.122;18.310;2024-01-30T11:18:50;14.60;43.30
84173;DHT22;74302;40.122;18.310;2024-01-30T11:20:35;14.60;43.20
84173;DHT22;74302;40.122;18.310;2024-01-30T11:22:22;14.60;43.20
84173;DHT22;74302;40.122;18.310;2024-01-30T11:24:08;14.60;43.20
84173;DHT22;74302;40.122;18.310;2024-01-30T11:25:53;14.60;43.10
84173;DHT22;74302;40.122;18.310;2024-01-30T11:27:36;14.60;43.10
84173;DHT22;74302;40.122;18.310;2024-01-30T11:29:24;14.50;43.30
84173;DHT22;74302;40.122;18.310;2024-01-30T11:31:08;14.60;43.30
84173;DHT22;74302;40.122;18.310;2024-01-30T11:33:01;14.60;43.30
84173;DHT22;74302;40.122;18.310;2024-01-30T11:34:47;14.60;43.20
84173;DHT22;74302;40.122;18.310;2024-01-30T11:36:32;14.60;43.20
84173;DHT22;74302;40.122;18.310;2024-01-30T11:38:21;14.60;43.20
84173;DHT22;74302;40.122;18.310;2024-01-30T11:40:06;14.60;43.20